sensor_id;sensor_type;location;lat;lon;timestamp;pressure;altitude;pressure_sealevel;temperature;humidity
10948;BME280;5526;42.070;24.752;2023-04-21T00:00:13;98496.56;;;13.34;81.51
10948;BME280;5526;42.070;24.752;2023-04-21T00:02:40;98504.94;;;13.41;81.42
10948;BME280;5526;42.070;24.752;2023-04-21T00:05:08;98505.31;;;13.35;81.41
10948;BME280;5526;42.070;24.752;2023-04-21T00:07:37;98499.28;;;13.29;81.72
10948;BME280;5526;42.070;24.752;2023-04-21T00:10:05;98496.69;;;13.24;82.27
10948;BME280;5526;42.070;24.752;2023-04-21T00:12:33;98484.16;;;13.11;82.28
10948;BME280;5526;42.070;24.752;2023-04-21T00:15:02;98488.66;;;13.11;82.86
10948;BME280;5526;42.070;24.752;2023-04-21T00:17:29;98487.97;;;13.00;82.89
10948;BME280;5526;42.070;24.752;2023-04-21T00:19:56;98466.69;;;12.86;82.77
10948;BME280;5526;42.070;24.752;2023-04-21T00:22:24;98484.84;;;12.98;82.65
10948;BME280;5526;42.070;24.752;2023-04-21T00:24:51;98486.41;;;12.99;81.78
10948;BME280;5526;42.070;24.752;2023-04-21T00:27:18;98487.41;;;13.03;80.56
10948;BME280;5526;42.070;24.752;2023-04-21T00:29:46;98475.50;;;13.06;79.89
10948;BME280;5526;42.070;24.752;2023-04-21T00:32:14;98475.50;;;13.06;79.67
10948;BME280;5526;42.070;24.752;2023-04-21T00:34:41;98480.03;;;13.05;79.24
10948;BME280;5526;42.070;24.752;2023-04-21T00:37:09;98477.88;;;13.07;78.76
10948;BME280;5526;42.070;24.752;2023-04-21T00:39:36;98473.94;;;13.05;79.22
10948;BME280;5526;42.070;24.752;2023-04-21T00:42:03;98486.59;;;12.79;80.82
10948;BME280;5526;42.070;24.752;2023-04-21T00:44:30;98489.94;;;12.61;82.37
10948;BME280;5526;42.070;24.752;2023-04-21T00:46:57;98483.22;;;12.45;84.14
10948;BME280;5526;42.070;24.752;2023-04-21T00:49:27;98482.78;;;12.33;85.85
10948;BME280;5526;42.070;24.752;2023-04-21T00:51:54;98477.16;;;12.11;89.39
10948;BME280;5526;42.070;24.752;2023-04-21T00:54:23;98482.97;;;12.13;89.37
10948;BME280;5526;42.070;24.752;2023-04-21T00:56:51;98478.91;;;11.92;92.01
10948;BME280;5526;42.070;24.752;2023-04-21T00:59:18;98475.81;;;11.75;94.53
10948;BME280;5526;42.070;24.752;2023-04-21T01:01:45;98469.22;;;11.77;94.74
10948;BME280;5526;42.070;24.752;2023-04-21T01:04:12;98469.53;;;11.71;95.47
10948;BME280;5526;42.070;24.752;2023-04-21T01:06:41;98463.25;;;11.62;95.93
10948;BME280;5526;42.070;24.752;2023-04-21T01:09:10;98461.47;;;11.42;97.49
10948;BME280;5526;42.070;24.752;2023-04-21T01:11:38;98472.13;;;11.27;100.00
10948;BME280;5526;42.070;24.752;2023-04-21T01:14:05;98477.38;;;11.22;100.00
10948;BME280;5526;42.070;24.752;2023-04-21T01:16:32;98470.00;;;11.24;100.00
10948;BME280;5526;42.070;24.752;2023-04-21T01:19:00;98476.56;;;11.32;100.00
10948;BME280;5526;42.070;24.752;2023-04-21T01:21:37;98481.06;;;11.26;100.00
10948;BME280;5526;42.070;24.752;2023-04-21T01:24:06;98475.34;;;11.04;100.00
10948;BME280;5526;42.070;24.752;2023-04-21T01:26:34;98480.34;;;11.01;100.00
10948;BME280;5526;42.070;24.752;2023-04-21T01:29:01;98488.00;;;10.97;100.00
10948;BME280;5526;42.070;24.752;2023-04-21T01:31:28;98482.53;;;10.84;100.00
10948;BME280;5526;42.070;24.752;2023-04-21T01:33:55;98491.97;;;10.85;100.00
10948;BME280;5526;42.070;24.752;2023-04-21T01:36:23;98486.22;;;10.73;100.00
10948;BME280;5526;42.070;24.752;2023-04-21T01:38:52;98484.13;;;10.65;100.00
10948;BME280;5526;42.070;24.752;2023-04-21T01:41:19;98478.88;;;10.75;100.00
10948;BME280;5526;42.070;24.752;2023-04-21T01:43:46;98479.34;;;10.82;100.00
10948;BME280;5526;42.070;24.752;2023-04-21T01:46:14;98485.94;;;10.79;100.00
10948;BME280;5526;42.070;24.752;2023-04-21T01:48:41;98479.66;;;10.70;100.00
10948;BME280;5526;42.070;24.752;2023-04-21T01:51:08;98484.69;;;10.52;100.00
10948;BME280;5526;42.070;24.752;2023-04-21T01:53:35;98479.69;;;10.40;100.00
10948;BME280;5526;42.070;24.752;2023-04-21T01:56:05;98481.53;;;10.50;100.00
10948;BME280;5526;42.070;24.752;2023-04-21T01:58:32;98474.41;;;10.55;100.00
10948;BME280;5526;42.070;24.752;2023-04-21T02:00:59;98482.06;;;10.52;100.00
10948;BME280;5526;42.070;24.752;2023-04-21T02:03:26;98482.03;;;10.57;100.00
10948;BME280;5526;42.070;24.752;2023-04-21T02:05:53;98479.16;;;10.48;100.00
10948;BME280;5526;42.070;24.752;2023-04-21T02:08:20;98483.13;;;10.41;100.00
10948;BME280;5526;42.070;24.752;2023-04-21T02:10:47;98482.59;;;10.19;100.00
10948;BME280;5526;42.070;24.752;2023-04-21T02:13:16;98478.66;;;10.16;100.00
10948;BME280;5526;42.070;24.752;2023-04-21T02:15:43;98481.03;;;10.13;100.00
10948;BME280;5526;42.070;24.752;2023-04-21T02:18:11;98483.13;;;10.06;100.00
10948;BME280;5526;42.070;24.752;2023-04-21T02:20:39;98480.19;;;10.02;100.00
10948;BME280;5526;42.070;24.752;2023-04-21T02:23:06;98484.66;;;9.97;100.00
10948;BME280;5526;42.070;24.752;2023-04-21T02:25:33;98480.97;;;9.98;100.00
10948;BME280;5526;42.070;24.752;2023-04-21T02:28:01;98485.16;;;10.04;100.00
10948;BME280;5526;42.070;24.752;2023-04-21T02:30:29;98484.91;;;10.00;100.00
10948;BME280;5526;42.070;24.752;2023-04-21T02:32:57;98486.75;;;9.95;100.00
10948;BME280;5526;42.070;24.752;2023-04-21T02:35:24;98483.09;;;10.01;100.00
10948;BME280;5526;42.070;24.752;2023-04-21T02:37:51;98486.50;;;9.86;100.00
10948;BME280;5526;42.070;24.752;2023-04-21T02:40:19;98487.03;;;9.98;100.00
10948;BME280;5526;42.070;24.752;2023-04-21T02:42:46;98487.56;;;10.05;100.00
10948;BME280;5526;42.070;24.752;2023-04-21T02:45:13;98485.16;;;10.04;100.00
10948;BME280;5526;42.070;24.752;2023-04-21T02:47:42;98488.13;;;10.07;100.00
10948;BME280;5526;42.070;24.752;2023-04-21T02:50:12;98489.44;;;10.10;100.00
10948;BME280;5526;42.070;24.752;2023-04-21T02:52:39;98478.41;;;10.08;100.00
10948;BME280;5526;42.070;24.752;2023-04-21T02:55:07;98481.28;;;10.11;100.00
10948;BME280;5526;42.070;24.752;2023-04-21T02:57:34;98477.06;;;10.15;100.00
10948;BME280;5526;42.070;24.752;2023-04-21T03:00:02;98484.44;;;10.18;100.00
10948;BME280;5526;42.070;24.752;2023-04-21T03:02:29;98475.50;;;10.24;100.00
10948;BME280;5526;42.070;24.752;2023-04-21T03:04:58;98481.03;;;10.28;100.00
10948;BME280;5526;42.070;24.752;2023-04-21T03:07:25;98481.00;;;10.33;100.00
10948;BME280;5526;42.070;24.752;2023-04-21T03:09:52;98481.53;;;10.30;100.00
10948;BME280;5526;42.070;24.752;2023-04-21T03:12:19;98476.81;;;10.27;100.00
10948;BME280;5526;42.070;24.752;2023-04-21T03:14:47;98478.66;;;10.26;100.00
10948;BME280;5526;42.070;24.752;2023-04-21T03:17:14;98481.03;;;10.28;100.00
10948;BME280;5526;42.070;24.752;2023-04-21T03:19:41;98471.81;;;10.25;100.00
10948;BME280;5526;42.070;24.752;2023-04-21T03:22:10;98478.63;;;10.36;100.00
10948;BME280;5526;42.070;24.752;2023-04-21T03:24:37;98483.13;;;10.41;100.00
10948;BME280;5526;42.070;24.752;2023-04-21T03:27:04;98476.28;;;10.45;100.00
10948;BME280;5526;42.070;24.752;2023-04-21T03:29:31;98472.84;;;10.49;100.00
10948;BME280;5526;42.070;24.752;2023-04-21T03:31:58;98477.56;;;10.52;100.00
10948;BME280;5526;42.070;24.752;2023-04-21T03:34:26;98472.06;;;10.49;100.00
10948;BME280;5526;42.070;24.752;2023-04-21T03:36:53;98480.97;;;10.58;100.00
10948;BME280;5526;42.070;24.752;2023-04-21T03:39:22;98474.66;;;10.64;100.00
10948;BME280;5526;42.070;24.752;2023-04-21T03:41:49;98481.25;;;10.66;100.00
10948;BME280;5526;42.070;24.752;2023-04-21T03:44:16;98481.75;;;10.73;100.00
10948;BME280;5526;42.070;24.752;2023-04-21T03:46:44;98494.66;;;10.75;100.00
10948;BME280;5526;42.070;24.752;2023-04-21T03:49:11;98501.75;;;10.74;100.00
10948;BME280;5526;42.070;24.752;2023-04-21T03:51:38;98508.06;;;10.73;100.00
10948;BME280;5526;42.070;24.752;2023-04-21T03:54:05;98512.53;;;10.78;100.00
10948;BME280;5526;42.070;24.752;2023-04-21T03:56:34;98508.31;;;10.77;100.00
10948;BME280;5526;42.070;24.752;2023-04-21T03:59:01;98512.28;;;10.84;100.00
10948;BME280;5526;42.070;24.752;2023-04-21T04:01:28;98510.91;;;10.97;100.00
10948;BME280;5526;42.070;24.752;2023-04-21T04:03:56;98507.72;;;11.05;100.00
10948;BME280;5526;42.070;24.752;2023-04-21T04:06:23;98520.38;;;11.08;100.00
10948;BME280;5526;42.070;24.752;2023-04-21T04:08:51;98515.59;;;11.20;100.00
10948;BME280;5526;42.070;24.752;2023-04-21T04:11:18;98522.44;;;11.26;100.00
10948;BME280;5526;42.070;24.752;2023-04-21T04:13:47;98521.66;;;11.20;100.00
10948;BME280;5526;42.070;24.752;2023-04-21T04:16:14;98526.09;;;11.25;100.00
10948;BME280;5526;42.070;24.752;2023-04-21T04:18:41;98531.31;;;11.40;100.00
10948;BME280;5526;42.070;24.752;2023-04-21T04:21:10;98533.66;;;11.51;100.00
10948;BME280;5526;42.070;24.752;2023-04-21T04:23:37;98528.34;;;11.61;100.00
10948;BME280;5526;42.070;24.752;2023-04-21T04:26:05;98533.28;;;11.78;100.00
10948;BME280;5526;42.070;24.752;2023-04-21T04:28:32;98536.91;;;11.92;100.00
10948;BME280;5526;42.070;24.752;2023-04-21T04:31:00;98535.53;;;11.99;100.00
10948;BME280;5526;42.070;24.752;2023-04-21T04:33:28;98531.69;;;12.20;100.00
10948;BME280;5526;42.070;24.752;2023-04-21T04:35:55;98537.66;;;12.36;100.00
10948;BME280;5526;42.070;24.752;2023-04-21T04:38:22;98537.06;;;12.44;100.00
10948;BME280;5526;42.070;24.752;2023-04-21T04:40:52;98538.25;;;12.61;100.00
10948;BME280;5526;42.070;24.752;2023-04-21T04:43:20;98531.69;;;12.87;100.00
10948;BME280;5526;42.070;24.752;2023-04-21T04:45:47;98542.63;;;13.28;100.00
10948;BME280;5526;42.070;24.752;2023-04-21T04:48:16;98546.53;;;13.54;100.00
10948;BME280;5526;42.070;24.752;2023-04-21T04:50:43;98542.19;;;13.63;100.00
10948;BME280;5526;42.070;24.752;2023-04-21T04:53:10;98543.09;;;13.77;100.00
10948;BME280;5526;42.070;24.752;2023-04-21T04:55:38;98548.19;;;13.92;97.60
10948;BME280;5526;42.070;24.752;2023-04-21T04:58:05;98535.16;;;14.14;98.91
10948;BME280;5526;42.070;24.752;2023-04-21T05:00:32;98540.91;;;14.21;98.35
10948;BME280;5526;42.070;24.752;2023-04-21T05:03:01;98542.69;;;14.26;97.16
10948;BME280;5526;42.070;24.752;2023-04-21T05:05:30;98541.25;;;14.33;96.72
10948;BME280;5526;42.070;24.752;2023-04-21T05:07:57;98540.03;;;14.26;94.86
10948;BME280;5526;42.070;24.752;2023-04-21T05:10:25;98531.56;;;14.05;93.37
10948;BME280;5526;42.070;24.752;2023-04-21T05:12:52;98543.03;;;14.19;93.64
10948;BME280;5526;42.070;24.752;2023-04-21T05:15:19;98542.88;;;14.29;93.22
10948;BME280;5526;42.070;24.752;2023-04-21T05:17:47;98548.00;;;14.26;91.68
10948;BME280;5526;42.070;24.752;2023-04-21T05:20:14;98551.59;;;14.48;90.33
10948;BME280;5526;42.070;24.752;2023-04-21T05:22:43;98551.06;;;14.65;89.15
10948;BME280;5526;42.070;24.752;2023-04-21T05:25:11;98543.31;;;14.68;89.63
10948;BME280;5526;42.070;24.752;2023-04-21T05:27:40;98548.78;;;14.90;88.65
10948;BME280;5526;42.070;24.752;2023-04-21T05:30:08;98545.38;;;15.17;86.32
10948;BME280;5526;42.070;24.752;2023-04-21T05:32:35;98555.81;;;15.27;87.13
10948;BME280;5526;42.070;24.752;2023-04-21T05:35:03;98552.50;;;15.48;87.04
10948;BME280;5526;42.070;24.752;2023-04-21T05:37:30;98562.19;;;15.66;88.13
10948;BME280;5526;42.070;24.752;2023-04-21T05:39:59;98556.00;;;15.84;88.43
10948;BME280;5526;42.070;24.752;2023-04-21T05:42:26;98555.00;;;15.80;88.89
10948;BME280;5526;42.070;24.752;2023-04-21T05:44:54;98556.47;;;15.73;87.54
10948;BME280;5526;42.070;24.752;2023-04-21T05:47:21;98552.44;;;15.89;84.83
10948;BME280;5526;42.070;24.752;2023-04-21T05:49:50;98545.91;;;16.08;82.91
10948;BME280;5526;42.070;24.752;2023-04-21T05:52:18;98544.91;;;16.40;80.30
10948;BME280;5526;42.070;24.752;2023-04-21T05:54:46;98539.56;;;16.53;79.32
10948;BME280;5526;42.070;24.752;2023-04-21T05:57:14;98542.94;;;16.67;76.13
10948;BME280;5526;42.070;24.752;2023-04-21T05:59:42;98541.22;;;16.93;75.43
10948;BME280;5526;42.070;24.752;2023-04-21T06:02:09;98536.94;;;16.84;74.43
10948;BME280;5526;42.070;24.752;2023-04-21T06:04:37;98544.00;;;16.88;63.56
10948;BME280;5526;42.070;24.752;2023-04-21T06:07:04;98534.06;;;16.72;61.43
10948;BME280;5526;42.070;24.752;2023-04-21T06:09:33;98525.13;;;16.98;59.40
10948;BME280;5526;42.070;24.752;2023-04-21T06:12:00;98530.66;;;17.11;58.27
10948;BME280;5526;42.070;24.752;2023-04-21T06:14:29;98527.31;;;16.97;59.10
10948;BME280;5526;42.070;24.752;2023-04-21T06:16:56;98530.59;;;16.93;59.16
10948;BME280;5526;42.070;24.752;2023-04-21T06:19:24;98534.34;;;17.32;57.68
10948;BME280;5526;42.070;24.752;2023-04-21T06:21:51;98529.88;;;17.10;56.66
10948;BME280;5526;42.070;24.752;2023-04-21T06:24:18;98532.00;;;17.30;56.92
10948;BME280;5526;42.070;24.752;2023-04-21T06:26:50;98535.53;;;17.56;54.84
10948;BME280;5526;42.070;24.752;2023-04-21T06:29:17;98531.13;;;17.43;55.90
10948;BME280;5526;42.070;24.752;2023-04-21T06:31:46;98533.00;;;17.43;55.19
10948;BME280;5526;42.070;24.752;2023-04-21T06:34:14;98529.19;;;17.83;53.89
10948;BME280;5526;42.070;24.752;2023-04-21T06:36:41;98523.06;;;17.65;53.71
10948;BME280;5526;42.070;24.752;2023-04-21T06:39:08;98526.69;;;17.30;54.06
10948;BME280;5526;42.070;24.752;2023-04-21T06:41:36;98520.72;;;17.25;53.94
10948;BME280;5526;42.070;24.752;2023-04-21T06:44:03;98535.31;;;17.36;54.11
10948;BME280;5526;42.070;24.752;2023-04-21T06:46:30;98530.88;;;17.70;54.15
10948;BME280;5526;42.070;24.752;2023-04-21T06:48:59;98527.13;;;17.80;53.39
10948;BME280;5526;42.070;24.752;2023-04-21T06:51:26;98519.75;;;17.60;53.21
10948;BME280;5526;42.070;24.752;2023-04-21T06:53:53;98522.91;;;18.64;49.63
10948;BME280;5526;42.070;24.752;2023-04-21T06:56:21;98517.59;;;17.96;51.71
10948;BME280;5526;42.070;24.752;2023-04-21T06:58:48;98518.06;;;18.32;51.27
10948;BME280;5526;42.070;24.752;2023-04-21T07:01:15;98515.22;;;18.71;50.63
10948;BME280;5526;42.070;24.752;2023-04-21T07:03:42;98521.34;;;18.63;50.60
10948;BME280;5526;42.070;24.752;2023-04-21T07:06:11;98510.38;;;18.56;50.04
10948;BME280;5526;42.070;24.752;2023-04-21T07:08:39;98510.50;;;18.76;49.17
10948;BME280;5526;42.070;24.752;2023-04-21T07:11:06;98506.72;;;18.77;49.72
10948;BME280;5526;42.070;24.752;2023-04-21T07:13:33;98516.19;;;18.49;49.00
10948;BME280;5526;42.070;24.752;2023-04-21T07:16:01;98529.38;;;18.46;48.85
10948;BME280;5526;42.070;24.752;2023-04-21T07:18:28;98528.41;;;18.50;49.92
10948;BME280;5526;42.070;24.752;2023-04-21T07:20:55;98531.41;;;19.12;48.08
10948;BME280;5526;42.070;24.752;2023-04-21T07:23:24;98538.00;;;19.52;46.97
10948;BME280;5526;42.070;24.752;2023-04-21T07:25:51;98521.59;;;18.87;48.66
10948;BME280;5526;42.070;24.752;2023-04-21T07:28:18;98526.22;;;18.61;49.91
10948;BME280;5526;42.070;24.752;2023-04-21T07:30:46;98521.97;;;18.77;49.54
10948;BME280;5526;42.070;24.752;2023-04-21T07:33:13;98532.06;;;19.09;49.81
10948;BME280;5526;42.070;24.752;2023-04-21T07:35:40;98532.66;;;19.52;48.79
10948;BME280;5526;42.070;24.752;2023-04-21T07:38:08;98522.94;;;19.47;48.35
10948;BME280;5526;42.070;24.752;2023-04-21T07:40:37;98525.72;;;19.30;48.46
10948;BME280;5526;42.070;24.752;2023-04-21T07:43:04;98521.03;;;19.77;46.26
10948;BME280;5526;42.070;24.752;2023-04-21T07:45:31;98517.22;;;19.28;48.50
10948;BME280;5526;42.070;24.752;2023-04-21T07:47:59;98525.09;;;19.25;48.27
10948;BME280;5526;42.070;24.752;2023-04-21T07:50:26;98522.13;;;19.18;48.37
10948;BME280;5526;42.070;24.752;2023-04-21T07:52:53;98534.84;;;19.12;48.95
10948;BME280;5526;42.070;24.752;2023-04-21T07:55:20;98527.06;;;18.99;49.29
10948;BME280;5526;42.070;24.752;2023-04-21T07:57:49;98525.88;;;18.62;49.57
10948;BME280;5526;42.070;24.752;2023-04-21T08:00:17;98521.00;;;19.19;48.93
10948;BME280;5526;42.070;24.752;2023-04-21T08:02:44;98513.19;;;19.14;48.83
10948;BME280;5526;42.070;24.752;2023-04-21T08:05:11;98513.38;;;19.46;47.89
10948;BME280;5526;42.070;24.752;2023-04-21T08:07:39;98517.28;;;19.98;46.53
10948;BME280;5526;42.070;24.752;2023-04-21T08:10:07;98514.81;;;19.93;46.68
10948;BME280;5526;42.070;24.752;2023-04-21T08:12:35;98516.50;;;19.48;46.42
10948;BME280;5526;42.070;24.752;2023-04-21T08:15:04;98504.69;;;20.40;43.93
10948;BME280;5526;42.070;24.752;2023-04-21T08:17:33;98517.22;;;20.07;46.05
10948;BME280;5526;42.070;24.752;2023-04-21T08:20:01;98502.91;;;20.76;44.12
10948;BME280;5526;42.070;24.752;2023-04-21T08:22:28;98511.66;;;19.91;46.93
10948;BME280;5526;42.070;24.752;2023-04-21T08:24:56;98506.28;;;20.00;46.72
10948;BME280;5526;42.070;24.752;2023-04-21T08:27:23;98506.53;;;20.07;45.16
10948;BME280;5526;42.070;24.752;2023-04-21T08:29:50;98511.63;;;20.00;45.26
10948;BME280;5526;42.070;24.752;2023-04-21T08:32:19;98500.22;;;19.91;45.06
10948;BME280;5526;42.070;24.752;2023-04-21T08:34:49;98501.34;;;19.90;44.07
10948;BME280;5526;42.070;24.752;2023-04-21T08:37:16;98499.75;;;19.89;44.43
10948;BME280;5526;42.070;24.752;2023-04-21T08:39:44;98499.25;;;19.75;43.83
10948;BME280;5526;42.070;24.752;2023-04-21T08:42:12;98498.88;;;20.26;44.99
10948;BME280;5526;42.070;24.752;2023-04-21T08:44:40;98493.13;;;20.80;44.45
10948;BME280;5526;42.070;24.752;2023-04-21T08:47:09;98489.25;;;20.45;44.00
10948;BME280;5526;42.070;24.752;2023-04-21T08:49:38;98475.88;;;21.74;40.78
10948;BME280;5526;42.070;24.752;2023-04-21T08:52:07;98476.59;;;21.23;42.48
10948;BME280;5526;42.070;24.752;2023-04-21T08:54:34;98485.66;;;20.86;42.93
10948;BME280;5526;42.070;24.752;2023-04-21T08:57:02;98482.06;;;20.70;43.46
10948;BME280;5526;42.070;24.752;2023-04-21T08:59:29;98482.59;;;21.32;42.58
10948;BME280;5526;42.070;24.752;2023-04-21T09:02:06;98486.16;;;21.12;41.78
10948;BME280;5526;42.070;24.752;2023-04-21T09:04:34;98480.28;;;20.62;43.42
10948;BME280;5526;42.070;24.752;2023-04-21T09:07:03;98469.94;;;20.84;43.48
10948;BME280;5526;42.070;24.752;2023-04-21T09:09:31;98472.56;;;21.17;42.52
10948;BME280;5526;42.070;24.752;2023-04-21T09:11:58;98479.03;;;21.40;41.97
10948;BME280;5526;42.070;24.752;2023-04-21T09:14:30;98460.94;;;21.49;42.30
10948;BME280;5526;42.070;24.752;2023-04-21T09:16:59;98467.41;;;21.60;42.38
10948;BME280;5526;42.070;24.752;2023-04-21T09:19:26;98454.94;;;21.40;42.32
10948;BME280;5526;42.070;24.752;2023-04-21T09:21:54;98453.00;;;22.04;41.25
10948;BME280;5526;42.070;24.752;2023-04-21T09:24:23;98450.31;;;22.04;40.54
10948;BME280;5526;42.070;24.752;2023-04-21T09:26:50;98452.56;;;22.30;40.08
10948;BME280;5526;42.070;24.752;2023-04-21T09:29:20;98443.81;;;22.17;40.16
10948;BME280;5526;42.070;24.752;2023-04-21T09:31:48;98449.59;;;21.28;40.42
10948;BME280;5526;42.070;24.752;2023-04-21T09:34:17;98438.66;;;21.33;40.86
10948;BME280;5526;42.070;24.752;2023-04-21T09:36:46;98441.13;;;21.14;41.16
10948;BME280;5526;42.070;24.752;2023-04-21T09:39:13;98434.66;;;21.27;40.89
10948;BME280;5526;42.070;24.752;2023-04-21T09:41:42;98423.69;;;21.44;40.29
10948;BME280;5526;42.070;24.752;2023-04-21T09:44:10;98427.13;;;21.57;40.64
10948;BME280;5526;42.070;24.752;2023-04-21T09:46:37;98429.78;;;21.81;40.33
10948;BME280;5526;42.070;24.752;2023-04-21T09:49:10;98435.25;;;21.60;39.13
10948;BME280;5526;42.070;24.752;2023-04-21T09:51:39;98426.31;;;21.68;39.57
10948;BME280;5526;42.070;24.752;2023-04-21T09:54:15;98430.13;;;21.67;41.11
10948;BME280;5526;42.070;24.752;2023-04-21T09:56:47;98418.94;;;21.26;40.63
10948;BME280;5526;42.070;24.752;2023-04-21T09:59:18;98422.13;;;21.95;40.58
10948;BME280;5526;42.070;24.752;2023-04-21T10:01:47;98417.84;;;21.66;39.31
10948;BME280;5526;42.070;24.752;2023-04-21T10:04:16;98432.50;;;21.21;40.77
10948;BME280;5526;42.070;24.752;2023-04-21T10:06:45;98417.63;;;21.59;40.96
10948;BME280;5526;42.070;24.752;2023-04-21T10:09:13;98407.09;;;22.33;40.49
10948;BME280;5526;42.070;24.752;2023-04-21T10:11:41;98409.13;;;22.83;39.29
10948;BME280;5526;42.070;24.752;2023-04-21T10:14:10;98416.50;;;22.27;37.29
10948;BME280;5526;42.070;24.752;2023-04-21T10:16:38;98405.09;;;22.03;38.04
10948;BME280;5526;42.070;24.752;2023-04-21T10:19:23;98397.38;;;22.13;38.57
10948;BME280;5526;42.070;24.752;2023-04-21T10:21:51;98394.75;;;22.44;39.26
10948;BME280;5526;42.070;24.752;2023-04-21T10:24:21;98395.66;;;22.21;39.41
10948;BME280;5526;42.070;24.752;2023-04-21T10:26:49;98410.25;;;22.51;37.73
10948;BME280;5526;42.070;24.752;2023-04-21T10:29:27;98406.38;;;22.21;37.74
10948;BME280;5526;42.070;24.752;2023-04-21T10:31:55;98395.78;;;22.55;37.80
10948;BME280;5526;42.070;24.752;2023-04-21T10:34:37;98401.94;;;22.71;35.97
10948;BME280;5526;42.070;24.752;2023-04-21T10:37:17;98393.78;;;22.83;35.96
10948;BME280;5526;42.070;24.752;2023-04-21T10:39:54;98391.31;;;22.75;35.75
10948;BME280;5526;42.070;24.752;2023-04-21T10:42:26;98387.66;;;22.67;33.94
10948;BME280;5526;42.070;24.752;2023-04-21T10:45:07;98389.88;;;22.34;33.02
10948;BME280;5526;42.070;24.752;2023-04-21T10:47:38;98388.28;;;22.76;34.36
10948;BME280;5526;42.070;24.752;2023-04-21T10:50:16;98401.22;;;22.43;33.73
10948;BME280;5526;42.070;24.752;2023-04-21T10:52:55;98389.06;;;22.61;34.09
10948;BME280;5526;42.070;24.752;2023-04-21T10:55:26;98383.84;;;22.99;34.43
10948;BME280;5526;42.070;24.752;2023-04-21T10:57:53;98389.66;;;22.70;34.42
10948;BME280;5526;42.070;24.752;2023-04-21T11:00:23;98384.69;;;22.41;34.14
10948;BME280;5526;42.070;24.752;2023-04-21T11:02:55;98356.03;;;23.42;32.94
10948;BME280;5526;42.070;24.752;2023-04-21T11:05:30;98392.38;;;23.05;33.99
10948;BME280;5526;42.070;24.752;2023-04-21T11:08:16;98377.31;;;23.31;33.43
10948;BME280;5526;42.070;24.752;2023-04-21T11:10:47;98381.56;;;23.51;33.70
10948;BME280;5526;42.070;24.752;2023-04-21T11:13:15;98383.72;;;23.99;33.57
10948;BME280;5526;42.070;24.752;2023-04-21T11:16:00;98388.81;;;23.85;34.59
10948;BME280;5526;42.070;24.752;2023-04-21T11:18:38;98380.19;;;23.07;34.35
10948;BME280;5526;42.070;24.752;2023-04-21T11:21:10;98389.31;;;22.56;34.36
10948;BME280;5526;42.070;24.752;2023-04-21T11:23:40;98396.25;;;22.30;33.46
10948;BME280;5526;42.070;24.752;2023-04-21T11:26:08;98381.88;;;22.50;34.76
10948;BME280;5526;42.070;24.752;2023-04-21T11:28:35;98379.03;;;22.58;35.44
10948;BME280;5526;42.070;24.752;2023-04-21T11:31:04;98375.66;;;22.61;36.09
10948;BME280;5526;42.070;24.752;2023-04-21T11:33:35;98387.16;;;22.77;36.20
10948;BME280;5526;42.070;24.752;2023-04-21T11:36:04;98379.72;;;23.36;35.32
10948;BME280;5526;42.070;24.752;2023-04-21T11:38:36;98371.94;;;23.69;32.59
10948;BME280;5526;42.070;24.752;2023-04-21T11:41:04;98371.88;;;23.85;32.05
10948;BME280;5526;42.070;24.752;2023-04-21T11:43:32;98375.50;;;23.54;32.83
10948;BME280;5526;42.070;24.752;2023-04-21T11:46:24;98375.91;;;23.56;32.65
10948;BME280;5526;42.070;24.752;2023-04-21T11:48:58;98384.94;;;23.14;33.58
10948;BME280;5526;42.070;24.752;2023-04-21T11:51:26;98392.25;;;22.82;33.55
10948;BME280;5526;42.070;24.752;2023-04-21T11:53:58;98385.00;;;22.52;34.15
10948;BME280;5526;42.070;24.752;2023-04-21T11:56:25;98386.16;;;23.01;32.89
10948;BME280;5526;42.070;24.752;2023-04-21T11:58:53;98371.38;;;23.60;31.65
10948;BME280;5526;42.070;24.752;2023-04-21T12:01:22;98369.66;;;24.28;31.60
10948;BME280;5526;42.070;24.752;2023-04-21T12:03:50;98372.59;;;24.65;31.97
10948;BME280;5526;42.070;24.752;2023-04-21T12:06:22;98376.63;;;24.33;32.71
10948;BME280;5526;42.070;24.752;2023-04-21T12:08:54;98381.00;;;23.42;34.37
10948;BME280;5526;42.070;24.752;2023-04-21T12:11:23;98391.13;;;22.83;35.96
10948;BME280;5526;42.070;24.752;2023-04-21T12:13:50;98387.41;;;22.72;36.25
10948;BME280;5526;42.070;24.752;2023-04-21T12:16:18;98381.31;;;23.22;36.23
10948;BME280;5526;42.070;24.752;2023-04-21T12:18:48;98369.03;;;23.40;35.32
10948;BME280;5526;42.070;24.752;2023-04-21T12:21:18;98375.00;;;22.83;36.26
10948;BME280;5526;42.070;24.752;2023-04-21T12:23:46;98376.84;;;22.64;37.42
10948;BME280;5526;42.070;24.752;2023-04-21T12:26:13;98372.84;;;22.27;38.05
10948;BME280;5526;42.070;24.752;2023-04-21T12:28:40;98373.47;;;22.08;38.41
10948;BME280;5526;42.070;24.752;2023-04-21T12:31:07;98378.28;;;22.30;38.31
10948;BME280;5526;42.070;24.752;2023-04-21T12:33:35;98384.91;;;22.48;37.62
10948;BME280;5526;42.070;24.752;2023-04-21T12:36:04;98379.72;;;22.71;37.88
10948;BME280;5526;42.070;24.752;2023-04-21T12:38:32;98366.88;;;22.80;37.98
10948;BME280;5526;42.070;24.752;2023-04-21T12:40:59;98372.56;;;23.44;37.33
10948;BME280;5526;42.070;24.752;2023-04-21T12:43:26;98380.53;;;23.56;35.98
10948;BME280;5526;42.070;24.752;2023-04-21T12:45:54;98371.16;;;23.31;35.19
10948;BME280;5526;42.070;24.752;2023-04-21T12:48:21;98373.50;;;23.89;34.35
10948;BME280;5526;42.070;24.752;2023-04-21T12:50:48;98371.25;;;24.10;33.74
10948;BME280;5526;42.070;24.752;2023-04-21T12:53:17;98377.47;;;23.76;33.52
10948;BME280;5526;42.070;24.752;2023-04-21T12:55:44;98374.06;;;23.41;33.12
10948;BME280;5526;42.070;24.752;2023-04-21T12:58:12;98369.22;;;24.04;32.46
10948;BME280;5526;42.070;24.752;2023-04-21T13:00:41;98372.72;;;24.27;31.82
10948;BME280;5526;42.070;24.752;2023-04-21T13:03:08;98359.81;;;23.94;31.51